sensor_id;sensor_type;location;lat;lon;timestamp;temperature;humidity
16879;DHT22;8556;52.218;9.884;2022-09-12T00:01:17;13.20;99.90
16879;DHT22;8556;52.218;9.884;2022-09-12T00:03:46;13.20;99.90
16879;DHT22;8556;52.218;9.884;2022-09-12T00:06:17;13.10;99.90
16879;DHT22;8556;52.218;9.884;2022-09-12T00:08:45;13.10;99.90
16879;DHT22;8556;52.218;9.884;2022-09-12T00:11:12;13.00;99.90
16879;DHT22;8556;52.218;9.884;2022-09-12T00:13:40;13.00;99.90
16879;DHT22;8556;52.218;9.884;2022-09-12T00:16:14;13.00;99.90
16879;DHT22;8556;52.218;9.884;2022-09-12T00:18:42;12.90;99.90
16879;DHT22;8556;52.218;9.884;2022-09-12T00:21:11;12.80;99.90
16879;DHT22;8556;52.218;9.884;2022-09-12T00:23:38;12.80;99.90
16879;DHT22;8556;52.218;9.884;2022-09-12T00:26:07;12.80;99.90
16879;DHT22;8556;52.218;9.884;2022-09-12T00:28:35;12.80;99.90
16879;DHT22;8556;52.218;9.884;2022-09-12T00:31:05;12.80;99.90
16879;DHT22;8556;52.218;9.884;2022-09-12T00:33:33;12.80;99.90
16879;DHT22;8556;52.218;9.884;2022-09-12T00:36:03;12.80;99.90
16879;DHT22;8556;52.218;9.884;2022-09-12T00:38:31;12.80;99.90
16879;DHT22;8556;52.218;9.884;2022-09-12T00:40:58;12.80;99.90
16879;DHT22;8556;52.218;9.884;2022-09-12T00:43:38;12.80;99.90
16879;DHT22;8556;52.218;9.884;2022-09-12T00:46:12;12.70;99.90
16879;DHT22;8556;52.218;9.884;2022-09-12T00:48:45;12.70;99.90
16879;DHT22;8556;52.218;9.884;2022-09-12T00:51:14;12.70;99.90
16879;DHT22;8556;52.218;9.884;2022-09-12T00:53:43;12.60;99.90
16879;DHT22;8556;52.218;9.884;2022-09-12T00:56:13;12.50;99.90
16879;DHT22;8556;52.218;9.884;2022-09-12T00:58:46;12.50;99.90
16879;DHT22;8556;52.218;9.884;2022-09-12T01:01:14;12.50;99.90
16879;DHT22;8556;52.218;9.884;2022-09-12T01:03:41;12.50;99.90
16879;DHT22;8556;52.218;9.884;2022-09-12T01:06:12;12.50;99.90
16879;DHT22;8556;52.218;9.884;2022-09-12T01:08:42;12.50;99.90
16879;DHT22;8556;52.218;9.884;2022-09-12T01:11:11;12.50;99.90
16879;DHT22;8556;52.218;9.884;2022-09-12T01:13:38;12.50;99.90
16879;DHT22;8556;52.218;9.884;2022-09-12T01:16:07;12.40;99.90
16879;DHT22;8556;52.218;9.884;2022-09-12T01:18:43;12.30;99.90
16879;DHT22;8556;52.218;9.884;2022-09-12T01:21:17;12.30;99.90
16879;DHT22;8556;52.218;9.884;2022-09-12T01:33:24;12.30;99.90
16879;DHT22;8556;52.218;9.884;2022-09-12T01:38:44;12.30;99.90
16879;DHT22;8556;52.218;9.884;2022-09-12T01:41:19;12.30;99.90
16879;DHT22;8556;52.218;9.884;2022-09-12T01:43:55;12.20;99.90
16879;DHT22;8556;52.218;9.884;2022-09-12T01:46:29;12.00;99.90
16879;DHT22;8556;52.218;9.884;2022-09-12T01:49:02;11.80;99.90
16879;DHT22;8556;52.218;9.884;2022-09-12T01:51:36;11.80;99.90
16879;DHT22;8556;52.218;9.884;2022-09-12T01:54:07;11.90;99.90
16879;DHT22;8556;52.218;9.884;2022-09-12T01:56:38;11.90;99.90
16879;DHT22;8556;52.218;9.884;2022-09-12T01:59:09;11.90;99.90
16879;DHT22;8556;52.218;9.884;2022-09-12T02:01:40;11.90;99.90
16879;DHT22;8556;52.218;9.884;2022-09-12T02:04:14;12.00;99.90
16879;DHT22;8556;52.218;9.884;2022-09-12T02:06:45;12.00;99.90
16879;DHT22;8556;52.218;9.884;2022-09-12T02:09:18;12.00;99.90
16879;DHT22;8556;52.218;9.884;2022-09-12T02:11:47;12.00;99.90
16879;DHT22;8556;52.218;9.884;2022-09-12T02:14:19;11.80;99.90
16879;DHT22;8556;52.218;9.884;2022-09-12T02:16:51;11.70;99.90
16879;DHT22;8556;52.218;9.884;2022-09-12T02:19:23;11.60;99.90
16879;DHT22;8556;52.218;9.884;2022-09-12T02:21:54;11.60;99.90
16879;DHT22;8556;52.218;9.884;2022-09-12T02:24:27;11.60;99.90
16879;DHT22;8556;52.218;9.884;2022-09-12T02:26:58;11.60;99.90
16879;DHT22;8556;52.218;9.884;2022-09-12T02:29:27;11.60;99.90
16879;DHT22;8556;52.218;9.884;2022-09-12T02:31:57;11.40;99.90
16879;DHT22;8556;52.218;9.884;2022-09-12T02:34:39;11.40;99.90
16879;DHT22;8556;52.218;9.884;2022-09-12T02:37:17;11.40;99.90
16879;DHT22;8556;52.218;9.884;2022-09-12T02:39:45;11.40;99.90
16879;DHT22;8556;52.218;9.884;2022-09-12T02:42:12;11.30;99.90
16879;DHT22;8556;52.218;9.884;2022-09-12T02:44:40;11.30;99.90
16879;DHT22;8556;52.218;9.884;2022-09-12T02:47:10;11.40;99.90
16879;DHT22;8556;52.218;9.884;2022-09-12T02:49:40;11.40;99.90
16879;DHT22;8556;52.218;9.884;2022-09-12T02:52:07;11.50;99.90
16879;DHT22;8556;52.218;9.884;2022-09-12T02:54:34;11.50;99.90
16879;DHT22;8556;52.218;9.884;2022-09-12T02:57:02;11.60;99.90
16879;DHT22;8556;52.218;9.884;2022-09-12T02:59:31;11.60;99.90
16879;DHT22;8556;52.218;9.884;2022-09-12T03:02:16;11.60;99.90
16879;DHT22;8556;52.218;9.884;2022-09-12T03:05:15;11.60;99.90
16879;DHT22;8556;52.218;9.884;2022-09-12T03:07:58;11.50;99.90
16879;DHT22;8556;52.218;9.884;2022-09-12T03:10:35;11.60;99.90
16879;DHT22;8556;52.218;9.884;2022-09-12T03:13:16;11.40;99.90
16879;DHT22;8556;52.218;9.884;2022-09-12T03:15:51;11.20;99.90
16879;DHT22;8556;52.218;9.884;2022-09-12T03:18:31;11.20;99.90
16879;DHT22;8556;52.218;9.884;2022-09-12T03:21:08;11.30;99.90
16879;DHT22;8556;52.218;9.884;2022-09-12T03:23:42;11.30;99.90
16879;DHT22;8556;52.218;9.884;2022-09-12T03:26:14;11.40;99.90
16879;DHT22;8556;52.218;9.884;2022-09-12T03:28:42;11.40;99.90
16879;DHT22;8556;52.218;9.884;2022-09-12T03:31:12;11.40;99.90
16879;DHT22;8556;52.218;9.884;2022-09-12T03:33:39;11.60;99.90
16879;DHT22;8556;52.218;9.884;2022-09-12T03:36:13;11.60;99.90
16879;DHT22;8556;52.218;9.884;2022-09-12T03:38:41;11.50;99.90
16879;DHT22;8556;52.218;9.884;2022-09-12T03:41:09;11.40;99.90
16879;DHT22;8556;52.218;9.884;2022-09-12T03:43:36;11.60;99.90
16879;DHT22;8556;52.218;9.884;2022-09-12T03:46:03;11.50;99.90
16879;DHT22;8556;52.218;9.884;2022-09-12T03:48:30;11.40;99.90
16879;DHT22;8556;52.218;9.884;2022-09-12T03:50:59;11.40;99.90
16879;DHT22;8556;52.218;9.884;2022-09-12T03:53:28;11.40;99.90
16879;DHT22;8556;52.218;9.884;2022-09-12T03:55:55;11.40;99.90
16879;DHT22;8556;52.218;9.884;2022-09-12T03:58:22;11.30;99.90
16879;DHT22;8556;52.218;9.884;2022-09-12T04:00:49;11.20;99.90
16879;DHT22;8556;52.218;9.884;2022-09-12T04:03:17;11.20;99.90
16879;DHT22;8556;52.218;9.884;2022-09-12T04:05:44;11.20;99.90
16879;DHT22;8556;52.218;9.884;2022-09-12T04:08:12;11.20;99.90
16879;DHT22;8556;52.218;9.884;2022-09-12T04:10:41;11.20;99.90
16879;DHT22;8556;52.218;9.884;2022-09-12T04:13:08;11.20;99.90
16879;DHT22;8556;52.218;9.884;2022-09-12T04:15:35;11.20;99.90
16879;DHT22;8556;52.218;9.884;2022-09-12T04:18:02;11.30;99.90
16879;DHT22;8556;52.218;9.884;2022-09-12T04:20:29;11.30;99.90
16879;DHT22;8556;52.218;9.884;2022-09-12T04:22:56;11.30;99.90
16879;DHT22;8556;52.218;9.884;2022-09-12T04:25:23;11.30;99.90
16879;DHT22;8556;52.218;9.884;2022-09-12T04:27:53;11.20;99.90
16879;DHT22;8556;52.218;9.884;2022-09-12T04:30:20;11.10;99.90
16879;DHT22;8556;52.218;9.884;2022-09-12T04:32:46;11.00;99.90
16879;DHT22;8556;52.218;9.884;2022-09-12T04:35:14;11.10;99.90
16879;DHT22;8556;52.218;9.884;2022-09-12T04:37:41;11.10;99.90
16879;DHT22;8556;52.218;9.884;2022-09-12T04:40:08;11.10;99.90
16879;DHT22;8556;52.218;9.884;2022-09-12T04:42:35;11.10;99.90
16879;DHT22;8556;52.218;9.884;2022-09-12T04:45:04;11.00;99.90
16879;DHT22;8556;52.218;9.884;2022-09-12T04:47:32;11.00;99.90
16879;DHT22;8556;52.218;9.884;2022-09-12T04:49:59;11.00;99.90
16879;DHT22;8556;52.218;9.884;2022-09-12T04:52:26;11.10;99.90
16879;DHT22;8556;52.218;9.884;2022-09-12T04:54:53;11.00;99.90
16879;DHT22;8556;52.218;9.884;2022-09-12T04:57:20;11.00;99.90
16879;DHT22;8556;52.218;9.884;2022-09-12T04:59:47;11.00;99.90
16879;DHT22;8556;52.218;9.884;2022-09-12T05:02:15;10.90;99.90
16879;DHT22;8556;52.218;9.884;2022-09-12T05:04:42;10.90;99.90
16879;DHT22;8556;52.218;9.884;2022-09-12T05:07:11;10.90;99.90
16879;DHT22;8556;52.218;9.884;2022-09-12T05:09:38;11.00;99.90
16879;DHT22;8556;52.218;9.884;2022-09-12T05:12:06;11.00;99.90
16879;DHT22;8556;52.218;9.884;2022-09-12T05:14:34;10.90;99.90
16879;DHT22;8556;52.218;9.884;2022-09-12T05:17:02;11.10;99.90
16879;DHT22;8556;52.218;9.884;2022-09-12T05:19:32;11.30;99.90
16879;DHT22;8556;52.218;9.884;2022-09-12T05:21:59;11.30;99.90
16879;DHT22;8556;52.218;9.884;2022-09-12T05:24:26;11.30;99.90
16879;DHT22;8556;52.218;9.884;2022-09-12T05:26:53;11.40;99.90
16879;DHT22;8556;52.218;9.884;2022-09-12T05:29:20;11.40;99.90
16879;DHT22;8556;52.218;9.884;2022-09-12T05:31:47;11.50;99.90
16879;DHT22;8556;52.218;9.884;2022-09-12T05:34:14;11.40;99.90
16879;DHT22;8556;52.218;9.884;2022-09-12T05:36:42;11.50;99.90
16879;DHT22;8556;52.218;9.884;2022-09-12T05:39:09;11.60;99.90
16879;DHT22;8556;52.218;9.884;2022-09-12T05:41:37;11.50;99.90
16879;DHT22;8556;52.218;9.884;2022-09-12T05:44:09;11.50;99.90
16879;DHT22;8556;52.218;9.884;2022-09-12T05:46:37;11.50;99.90
16879;DHT22;8556;52.218;9.884;2022-09-12T05:49:06;11.70;99.90
16879;DHT22;8556;52.218;9.884;2022-09-12T05:51:35;11.70;99.90
16879;DHT22;8556;52.218;9.884;2022-09-12T05:54:07;11.80;99.90
16879;DHT22;8556;52.218;9.884;2022-09-12T05:56:37;11.90;99.90
16879;DHT22;8556;52.218;9.884;2022-09-12T05:59:06;12.30;99.90
16879;DHT22;8556;52.218;9.884;2022-09-12T06:01:34;12.30;99.90
16879;DHT22;8556;52.218;9.884;2022-09-12T06:04:04;12.20;99.90
16879;DHT22;8556;52.218;9.884;2022-09-12T06:06:34;12.40;99.90
16879;DHT22;8556;52.218;9.884;2022-09-12T06:09:02;12.30;99.90
16879;DHT22;8556;52.218;9.884;2022-09-12T06:11:33;12.50;99.90
16879;DHT22;8556;52.218;9.884;2022-09-12T06:14:02;12.40;99.90
16879;DHT22;8556;52.218;9.884;2022-09-12T06:16:31;12.30;99.90
16879;DHT22;8556;52.218;9.884;2022-09-12T06:19:00;12.40;99.90
16879;DHT22;8556;52.218;9.884;2022-09-12T06:21:28;12.60;99.90
16879;DHT22;8556;52.218;9.884;2022-09-12T06:23:56;12.60;99.90
16879;DHT22;8556;52.218;9.884;2022-09-12T06:26:25;12.70;99.90
16879;DHT22;8556;52.218;9.884;2022-09-12T06:28:54;12.90;99.90
16879;DHT22;8556;52.218;9.884;2022-09-12T06:31:25;13.60;99.90
16879;DHT22;8556;52.218;9.884;2022-09-12T06:33:53;13.70;99.90
16879;DHT22;8556;52.218;9.884;2022-09-12T06:36:22;13.60;99.90
16879;DHT22;8556;52.218;9.884;2022-09-12T06:38:53;13.80;99.90
16879;DHT22;8556;52.218;9.884;2022-09-12T06:41:22;13.60;99.90
16879;DHT22;8556;52.218;9.884;2022-09-12T06:43:49;13.80;99.90
16879;DHT22;8556;52.218;9.884;2022-09-12T06:46:18;13.60;99.90
16879;DHT22;8556;52.218;9.884;2022-09-12T06:48:45;13.60;99.90
16879;DHT22;8556;52.218;9.884;2022-09-12T06:51:14;13.50;99.90
16879;DHT22;8556;52.218;9.884;2022-09-12T06:53:42;13.60;99.90
16879;DHT22;8556;52.218;9.884;2022-09-12T06:56:10;13.60;99.90
16879;DHT22;8556;52.218;9.884;2022-09-12T06:58:38;13.70;99.90
16879;DHT22;8556;52.218;9.884;2022-09-12T07:01:07;13.80;99.90
16879;DHT22;8556;52.218;9.884;2022-09-12T07:03:36;13.70;99.90
16879;DHT22;8556;52.218;9.884;2022-09-12T07:06:04;13.70;99.90
16879;DHT22;8556;52.218;9.884;2022-09-12T07:08:31;14.10;99.90
16879;DHT22;8556;52.218;9.884;2022-09-12T07:10:59;14.20;99.90
16879;DHT22;8556;52.218;9.884;2022-09-12T07:13:33;14.10;99.90
16879;DHT22;8556;52.218;9.884;2022-09-12T07:16:00;14.30;99.90
16879;DHT22;8556;52.218;9.884;2022-09-12T07:18:28;14.50;99.90
16879;DHT22;8556;52.218;9.884;2022-09-12T07:20:58;14.60;99.90
16879;DHT22;8556;52.218;9.884;2022-09-12T07:23:25;14.80;99.90
16879;DHT22;8556;52.218;9.884;2022-09-12T07:25:52;14.80;99.90
16879;DHT22;8556;52.218;9.884;2022-09-12T07:28:21;14.80;99.90
16879;DHT22;8556;52.218;9.884;2022-09-12T07:30:49;14.80;99.90
16879;DHT22;8556;52.218;9.884;2022-09-12T07:33:18;14.90;99.90
16879;DHT22;8556;52.218;9.884;2022-09-12T07:35:45;15.00;99.90
16879;DHT22;8556;52.218;9.884;2022-09-12T07:38:13;15.10;99.90
16879;DHT22;8556;52.218;9.884;2022-09-12T07:40:40;15.10;99.90
16879;DHT22;8556;52.218;9.884;2022-09-12T07:43:07;15.20;99.90
16879;DHT22;8556;52.218;9.884;2022-09-12T07:45:34;15.30;99.90
16879;DHT22;8556;52.218;9.884;2022-09-12T07:48:01;15.40;99.90
16879;DHT22;8556;52.218;9.884;2022-09-12T07:50:28;15.40;99.90
16879;DHT22;8556;52.218;9.884;2022-09-12T07:52:55;15.50;99.90
16879;DHT22;8556;52.218;9.884;2022-09-12T07:55:24;15.60;99.90
16879;DHT22;8556;52.218;9.884;2022-09-12T07:57:51;15.70;99.90
16879;DHT22;8556;52.218;9.884;2022-09-12T08:00:18;15.80;99.90
16879;DHT22;8556;52.218;9.884;2022-09-12T08:02:50;15.90;99.90
16879;DHT22;8556;52.218;9.884;2022-09-12T08:05:17;16.00;99.90
16879;DHT22;8556;52.218;9.884;2022-09-12T08:07:45;16.00;99.90
16879;DHT22;8556;52.218;9.884;2022-09-12T08:10:12;16.20;99.90
16879;DHT22;8556;52.218;9.884;2022-09-12T08:12:40;16.30;99.90
16879;DHT22;8556;52.218;9.884;2022-09-12T08:15:08;16.40;99.90
16879;DHT22;8556;52.218;9.884;2022-09-12T08:17:35;16.50;99.90
16879;DHT22;8556;52.218;9.884;2022-09-12T08:20:02;16.60;99.90
16879;DHT22;8556;52.218;9.884;2022-09-12T08:22:29;16.70;99.90
16879;DHT22;8556;52.218;9.884;2022-09-12T08:24:56;16.80;99.90
16879;DHT22;8556;52.218;9.884;2022-09-12T08:27:23;16.90;99.90
16879;DHT22;8556;52.218;9.884;2022-09-12T08:29:52;16.90;99.90
16879;DHT22;8556;52.218;9.884;2022-09-12T08:32:20;16.90;99.90
16879;DHT22;8556;52.218;9.884;2022-09-12T08:34:47;17.00;99.90
16879;DHT22;8556;52.218;9.884;2022-09-12T08:37:14;17.10;99.90
16879;DHT22;8556;52.218;9.884;2022-09-12T08:39:40;17.20;99.90
16879;DHT22;8556;52.218;9.884;2022-09-12T08:42:09;17.30;99.90
16879;DHT22;8556;52.218;9.884;2022-09-12T08:45:07;17.40;99.90
16879;DHT22;8556;52.218;9.884;2022-09-12T08:47:38;17.50;99.90
16879;DHT22;8556;52.218;9.884;2022-09-12T08:50:13;17.60;99.90
16879;DHT22;8556;52.218;9.884;2022-09-12T08:52:47;17.90;99.90
16879;DHT22;8556;52.218;9.884;2022-09-12T08:55:25;18.00;99.90
16879;DHT22;8556;52.218;9.884;2022-09-12T08:57:53;18.30;99.90
16879;DHT22;8556;52.218;9.884;2022-09-12T09:00:21;18.20;99.90
16879;DHT22;8556;52.218;9.884;2022-09-12T09:03:07;18.40;99.90
16879;DHT22;8556;52.218;9.884;2022-09-12T09:05:44;18.50;99.90
16879;DHT22;8556;52.218;9.884;2022-09-12T09:08:34;18.60;99.90
16879;DHT22;8556;52.218;9.884;2022-09-12T09:11:17;19.00;99.90
16879;DHT22;8556;52.218;9.884;2022-09-12T09:13:53;19.10;99.90
16879;DHT22;8556;52.218;9.884;2022-09-12T09:16:42;19.40;99.90
16879;DHT22;8556;52.218;9.884;2022-09-12T09:19:14;19.90;99.90
16879;DHT22;8556;52.218;9.884;2022-09-12T09:21:46;20.20;99.90
16879;DHT22;8556;52.218;9.884;2022-09-12T09:24:20;20.20;1.00
16879;DHT22;8556;52.218;9.884;2022-09-12T09:26:52;20.50;99.90
16879;DHT22;8556;52.218;9.884;2022-09-12T09:29:25;21.00;99.90
16879;DHT22;8556;52.218;9.884;2022-09-12T09:31:55;21.20;99.90
16879;DHT22;8556;52.218;9.884;2022-09-12T09:34:27;20.70;99.90
16879;DHT22;8556;52.218;9.884;2022-09-12T09:37:00;21.20;99.90
16879;DHT22;8556;52.218;9.884;2022-09-12T09:39:45;21.40;99.90
16879;DHT22;8556;52.218;9.884;2022-09-12T09:42:25;21.50;99.90
16879;DHT22;8556;52.218;9.884;2022-09-12T09:44:55;21.40;99.90
16879;DHT22;8556;52.218;9.884;2022-09-12T09:47:26;21.60;1.00
16879;DHT22;8556;52.218;9.884;2022-09-12T09:49:52;22.10;99.90
16879;DHT22;8556;52.218;9.884;2022-09-12T09:52:24;22.20;99.90
16879;DHT22;8556;52.218;9.884;2022-09-12T09:54:55;22.00;99.90
16879;DHT22;8556;52.218;9.884;2022-09-12T09:57:41;22.10;1.00
16879;DHT22;8556;52.218;9.884;2022-09-12T10:00:29;22.10;99.90
16879;DHT22;8556;52.218;9.884;2022-09-12T10:03:23;22.30;1.00
16879;DHT22;8556;52.218;9.884;2022-09-12T10:05:52;22.00;1.00
16879;DHT22;8556;52.218;9.884;2022-09-12T10:08:21;22.10;1.00
16879;DHT22;8556;52.218;9.884;2022-09-12T10:10:57;21.90;1.00
16879;DHT22;8556;52.218;9.884;2022-09-12T10:13:30;22.00;24.10
16879;DHT22;8556;52.218;9.884;2022-09-12T10:15:59;22.10;1.00
16879;DHT22;8556;52.218;9.884;2022-09-12T10:18:39;22.20;1.00
16879;DHT22;8556;52.218;9.884;2022-09-12T10:21:15;22.20;99.90
16879;DHT22;8556;52.218;9.884;2022-09-12T10:23:44;22.50;1.00
16879;DHT22;8556;52.218;9.884;2022-09-12T10:26:13;22.70;1.00
16879;DHT22;8556;52.218;9.884;2022-09-12T10:28:42;22.50;1.00
16879;DHT22;8556;52.218;9.884;2022-09-12T10:31:22;22.70;1.00
16879;DHT22;8556;52.218;9.884;2022-09-12T10:33:55;22.50;99.90
16879;DHT22;8556;52.218;9.884;2022-09-12T10:36:23;22.70;62.10
16879;DHT22;8556;52.218;9.884;2022-09-12T10:38:52;22.80;1.00
16879;DHT22;8556;52.218;9.884;2022-09-12T10:41:19;22.80;1.00
16879;DHT22;8556;52.218;9.884;2022-09-12T10:43:47;23.10;1.00
16879;DHT22;8556;52.218;9.884;2022-09-12T10:46:25;23.00;99.90
16879;DHT22;8556;52.218;9.884;2022-09-12T10:49:16;22.90;1.00
16879;DHT22;8556;52.218;9.884;2022-09-12T10:51:45;23.20;1.00
16879;DHT22;8556;52.218;9.884;2022-09-12T10:54:12;22.70;1.00
16879;DHT22;8556;52.218;9.884;2022-09-12T10:56:51;22.80;1.00
16879;DHT22;8556;52.218;9.884;2022-09-12T10:59:27;23.10;1.00
16879;DHT22;8556;52.218;9.884;2022-09-12T11:01:59;23.40;1.00
16879;DHT22;8556;52.218;9.884;2022-09-12T11:04:38;23.20;1.00
16879;DHT22;8556;52.218;9.884;2022-09-12T11:07:28;23.40;44.50
16879;DHT22;8556;52.218;9.884;2022-09-12T11:10:02;23.20;1.00
16879;DHT22;8556;52.218;9.884;2022-09-12T11:12:37;23.40;1.00
16879;DHT22;8556;52.218;9.884;2022-09-12T11:15:20;23.80;1.00
16879;DHT22;8556;52.218;9.884;2022-09-12T11:17:56;23.70;1.00
16879;DHT22;8556;52.218;9.884;2022-09-12T11:20:47;23.70;1.00
16879;DHT22;8556;52.218;9.884;2022-09-12T11:23:56;23.70;1.00
16879;DHT22;8556;52.218;9.884;2022-09-12T11:26:40;23.60;1.00
16879;DHT22;8556;52.218;9.884;2022-09-12T11:29:16;23.90;1.00
16879;DHT22;8556;52.218;9.884;2022-09-12T11:32:07;23.90;1.00
16879;DHT22;8556;52.218;9.884;2022-09-12T11:34:46;23.90;1.00
16879;DHT22;8556;52.218;9.884;2022-09-12T11:37:32;23.70;1.00
16879;DHT22;8556;52.218;9.884;2022-09-12T11:40:05;24.20;1.00
16879;DHT22;8556;52.218;9.884;2022-09-12T11:42:38;24.10;1.00
16879;DHT22;8556;52.218;9.884;2022-09-12T11:45:12;24.50;1.00
16879;DHT22;8556;52.218;9.884;2022-09-12T11:47:45;24.60;1.00
16879;DHT22;8556;52.218;9.884;2022-09-12T11:50:19;24.40;99.90
16879;DHT22;8556;52.218;9.884;2022-09-12T11:52:50;24.00;99.90
16879;DHT22;8556;52.218;9.884;2022-09-12T11:55:21;24.00;99.90
16879;DHT22;8556;52.218;9.884;2022-09-12T11:57:52;24.10;99.90
16879;DHT22;8556;52.218;9.884;2022-09-12T12:00:21;24.20;99.90
16879;DHT22;8556;52.218;9.884;2022-09-12T12:02:56;24.30;99.90
16879;DHT22;8556;52.218;9.884;2022-09-12T12:05:27;24.30;99.90
16879;DHT22;8556;52.218;9.884;2022-09-12T12:07:57;24.40;99.90
16879;DHT22;8556;52.218;9.884;2022-09-12T12:10:31;23.60;99.90
16879;DHT22;8556;52.218;9.884;2022-09-12T12:13:03;23.70;99.90
16879;DHT22;8556;52.218;9.884;2022-09-12T12:15:33;23.50;99.90
16879;DHT22;8556;52.218;9.884;2022-09-12T12:18:03;24.00;99.90
16879;DHT22;8556;52.218;9.884;2022-09-12T12:20:30;23.80;99.90
16879;DHT22;8556;52.218;9.884;2022-09-12T12:22:59;24.10;99.90
16879;DHT22;8556;52.218;9.884;2022-09-12T12:25:39;23.80;99.90
16879;DHT22;8556;52.218;9.884;2022-09-12T12:28:06;24.10;99.90
16879;DHT22;8556;52.218;9.884;2022-09-12T12:31:01;24.20;99.90
16879;DHT22;8556;52.218;9.884;2022-09-12T12:33:51;24.10;99.90
16879;DHT22;8556;52.218;9.884;2022-09-12T12:36:34;24.00;99.90
16879;DHT22;8556;52.218;9.884;2022-09-12T12:46:04;24.20;99.90
16879;DHT22;8556;52.218;9.884;2022-09-12T12:48:45;24.30;99.90
16879;DHT22;8556;52.218;9.884;2022-09-12T12:51:28;24.90;99.90
16879;DHT22;8556;52.218;9.884;2022-09-12T12:53:56;25.10;99.90
16879;DHT22;8556;52.218;9.884;2022-09-12T12:56:33;24.50;57.90
16879;DHT22;8556;52.218;9.884;2022-09-12T12:59:02;24.40;23.00
16879;DHT22;8556;52.218;9.884;2022-09-12T13:01:31;24.60;71.50
16879;DHT22;8556;52.218;9.884;2022-09-12T13:04:11;24.50;54.90
16879;DHT22;8556;52.218;9.884;2022-09-12T13:06:41;24.50;34.10
16879;DHT22;8556;52.218;9.884;2022-09-12T13:09:19;24.30;9.30
16879;DHT22;8556;52.218;9.884;2022-09-12T13:11:55;24.50;13.10
16879;DHT22;8556;52.218;9.884;2022-09-12T13:14:35;24.30;29.70
16879;DHT22;8556;52.218;9.884;2022-09-12T13:17:06;24.20;1.00
16879;DHT22;8556;52.218;9.884;2022-09-12T13:19:39;24.60;21.10
16879;DHT22;8556;52.218;9.884;2022-09-12T13:22:12;24.10;1.00
16879;DHT22;8556;52.218;9.884;2022-09-12T13:24:42;24.60;5.90
16879;DHT22;8556;52.218;9.884;2022-09-12T13:27:17;24.60;1.00
16879;DHT22;8556;52.218;9.884;2022-09-12T13:29:44;25.10;89.90
16879;DHT22;8556;52.218;9.884;2022-09-12T13:32:13;24.80;1.00
16879;DHT22;8556;52.218;9.884;2022-09-12T13:34:50;24.60;1.00
16879;DHT22;8556;52.218;9.884;2022-09-12T13:37:42;24.30;1.00
16879;DHT22;8556;52.218;9.884;2022-09-12T13:40:27;24.40;1.00
16879;DHT22;8556;52.218;9.884;2022-09-12T13:43:08;24.80;20.40
16879;DHT22;8556;52.218;9.884;2022-09-12T13:45:38;25.20;15.00
16879;DHT22;8556;52.218;9.884;2022-09-12T13:48:11;25.00;1.00
16879;DHT22;8556;52.218;9.884;2022-09-12T13:50:44;24.80;12.40
16879;DHT22;8556;52.218;9.884;2022-09-12T13:53:13;24.60;1.00
16879;DHT22;8556;52.218;9.884;2022-09-12T13:55:44;24.70;1.00
16879;DHT22;8556;52.218;9.884;2022-09-12T13:58:16;24.70;1.00
16879;DHT22;8556;52.218;9.884;2022-09-12T14:00:45;25.10;1.00
16879;DHT22;8556;52.218;9.884;2022-09-12T14:03:26;25.00;1.00
16879;DHT22;8556;52.218;9.884;2022-09-12T14:06:11;25.00;1.00
16879;DHT22;8556;52.218;9.884;2022-09-12T14:08:41;25.10;1.00
16879;DHT22;8556;52.218;9.884;2022-09-12T14:11:09;24.90;1.00
16879;DHT22;8556;52.218;9.884;2022-09-12T14:13:37;25.20;1.00
16879;DHT22;8556;52.218;9.884;2022-09-12T14:16:05;25.20;1.00
16879;DHT22;8556;52.218;9.884;2022-09-12T14:18:37;25.30;1.00
16879;DHT22;8556;52.218;9.884;2022-09-12T14:21:11;25.20;1.00
16879;DHT22;8556;52.218;9.884;2022-09-12T14:23:44;25.00;1.00
16879;DHT22;8556;52.218;9.884;2022-09-12T14:26:13;25.00;1.00
16879;DHT22;8556;52.218;9.884;2022-09-12T14:28:43;25.00;1.00
16879;DHT22;8556;52.218;9.884;2022-09-12T14:31:21;25.00;1.00
16879;DHT22;8556;52.218;9.884;2022-09-12T14:33:52;24.40;2.80
16879;DHT22;8556;52.218;9.884;2022-09-12T14:36:24;24.30;1.00
16879;DHT22;8556;52.218;9.884;2022-09-12T14:38:54;24.20;1.00
16879;DHT22;8556;52.218;9.884;2022-09-12T14:41:25;24.00;1.00
16879;DHT22;8556;52.218;9.884;2022-09-12T14:43:55;23.90;1.00
16879;DHT22;8556;52.218;9.884;2022-09-12T14:46:25;24.10;1.00
16879;DHT22;8556;52.218;9.884;2022-09-12T14:48:56;24.50;1.00
16879;DHT22;8556;52.218;9.884;2022-09-12T14:51:30;24.50;1.00
16879;DHT22;8556;52.218;9.884;2022-09-12T14:53:57;24.70;1.00
16879;DHT22;8556;52.218;9.884;2022-09-12T14:56:37;24.70;1.00
16879;DHT22;8556;52.218;9.884;2022-09-12T14:59:26;24.60;1.00
16879;DHT22;8556;52.218;9.884;2022-09-12T15:02:18;24.00;1.00
16879;DHT22;8556;52.218;9.884;2022-09-12T15:04:49;24.50;1.00
16879;DHT22;8556;52.218;9.884;2022-09-12T15:07:28;24.80;1.00
16879;DHT22;8556;52.218;9.884;2022-09-12T15:09:58;25.10;1.00
16879;DHT22;8556;52.218;9.884;2022-09-12T15:12:26;24.40;1.00
16879;DHT22;8556;52.218;9.884;2022-09-12T15:14:55;24.40;1.00
16879;DHT22;8556;52.218;9.884;2022-09-12T15:17:24;24.50;1.00
16879;DHT22;8556;52.218;9.884;2022-09-12T15:19:52;24.40;1.00
16879;DHT22;8556;52.218;9.884;2022-09-12T15:22:22;23.90;1.00
16879;DHT22;8556;52.218;9.884;2022-09-12T15:24:50;24.00;1.00
16879;DHT22;8556;52.218;9.884;2022-09-12T15:27:17;24.30;1.00
16879;DHT22;8556;52.218;9.884;2022-09-12T15:29:45;24.30;1.00
16879;DHT22;8556;52.218;9.884;2022-09-12T15:32:21;24.10;1.00
16879;DHT22;8556;52.218;9.884;2022-09-12T15:34:49;24.10;1.00
16879;DHT22;8556;52.218;9.884;2022-09-12T15:37:19;24.10;1.00
16879;DHT22;8556;52.218;9.884;2022-09-12T15:39:46;23.80;1.00
16879;DHT22;8556;52.218;9.884;2022-09-12T15:42:13;23.60;1.00
16879;DHT22;8556;52.218;9.884;2022-09-12T15:44:41;23.60;1.00
16879;DHT22;8556;52.218;9.884;2022-09-12T15:47:10;23.60;1.00
16879;DHT22;8556;52.218;9.884;2022-09-12T15:49:38;23.50;1.00
16879;DHT22;8556;52.218;9.884;2022-09-12T15:52:05;23.40;2.90
16879;DHT22;8556;52.218;9.884;2022-09-12T15:54:34;23.00;1.00
16879;DHT22;8556;52.218;9.884;2022-09-12T15:57:01;23.20;1.00
16879;DHT22;8556;52.218;9.884;2022-09-12T15:59:28;23.50;1.00
16879;DHT22;8556;52.218;9.884;2022-09-12T16:01:55;23.50;1.00
16879;DHT22;8556;52.218;9.884;2022-09-12T16:04:24;23.20;1.00
16879;DHT22;8556;52.218;9.884;2022-09-12T16:06:52;23.10;1.00
16879;DHT22;8556;52.218;9.884;2022-09-12T16:09:21;23.10;1.00
16879;DHT22;8556;52.218;9.884;2022-09-12T16:11:49;23.00;1.00
16879;DHT22;8556;52.218;9.884;2022-09-12T16:14:18;22.90;1.00
16879;DHT22;8556;52.218;9.884;2022-09-12T16:16:51;22.80;88.10
16879;DHT22;8556;52.218;9.884;2022-09-12T16:19:18;22.60;99.90
16879;DHT22;8556;52.218;9.884;2022-09-12T16:21:46;22.50;99.90
16879;DHT22;8556;52.218;9.884;2022-09-12T16:24:13;22.50;99.90
16879;DHT22;8556;52.218;9.884;2022-09-12T16:26:40;22.50;99.90
16879;DHT22;8556;52.218;9.884;2022-09-12T16:29:11;22.40;1.00
16879;DHT22;8556;52.218;9.884;2022-09-12T16:31:38;22.40;1.00
16879;DHT22;8556;52.218;9.884;2022-09-12T16:34:05;22.40;99.90
16879;DHT22;8556;52.218;9.884;2022-09-12T16:36:32;22.50;99.90